createdAt,value
2022-07-28T00:02:07.284Z,38.22
2022-07-28T00:04:34.358Z,38.61
2022-07-28T00:07:01.605Z,38.56
2022-07-28T00:09:28.787Z,38.61
2022-07-28T00:11:55.311Z,38.39
2022-07-28T00:14:22.680Z,38.55
2022-07-28T00:16:49.354Z,38.50
2022-07-28T00:19:16.648Z,38.66
2022-07-28T00:21:43.369Z,38.79
2022-07-28T00:24:10.172Z,38.68
2022-07-28T00:26:37.384Z,38.75
2022-07-28T00:29:04.897Z,38.69
2022-07-28T00:31:31.604Z,38.69
2022-07-28T00:33:58.292Z,38.60
2022-07-28T00:36:25.814Z,38.95
2022-07-28T00:38:52.948Z,38.29
2022-07-28T00:41:20.569Z,38.50
2022-07-28T00:43:49.294Z,38.38
2022-07-28T00:46:18.117Z,38.78
2022-07-28T00:48:48.227Z,38.97
2022-07-28T00:51:18.691Z,38.98
2022-07-28T00:53:45.721Z,38.91
2022-07-28T00:56:12.809Z,39.02
2022-07-28T00:58:40.235Z,38.85
2022-07-28T01:01:09.508Z,38.92
2022-07-28T01:03:41.887Z,39.03
2022-07-28T01:06:26.291Z,39.27
2022-07-28T01:09:10.129Z,38.96
2022-07-28T01:12:05.438Z,39.00
2022-07-28T01:14:44.977Z,38.98
2022-07-28T01:17:25.789Z,38.99
2022-07-28T01:20:06.067Z,39.25
2022-07-28T01:22:38.329Z,39.10
2022-07-28T01:25:51.198Z,39.33
2022-07-28T01:28:23.551Z,39.15
2022-07-28T01:30:54.579Z,38.86
2022-07-28T01:33:44.257Z,38.90
2022-07-28T01:36:15.344Z,38.80
2022-07-28T01:38:43.910Z,38.98
2022-07-28T01:41:14.706Z,38.92
2022-07-28T01:43:45.791Z,38.99
2022-07-28T01:46:14.487Z,39.10
2022-07-28T01:48:43.093Z,38.92
2022-07-28T01:51:12.547Z,38.82
2022-07-28T01:53:40.682Z,38.87
2022-07-28T01:56:08.045Z,38.80
2022-07-28T01:58:37.235Z,39.03
2022-07-28T02:01:05.749Z,38.92
2022-07-28T02:03:34.419Z,38.82
2022-07-28T02:06:04.241Z,38.89
2022-07-28T02:08:33.156Z,38.88
2022-07-28T02:11:18.602Z,38.90
2022-07-28T02:13:48.183Z,38.92
2022-07-28T02:16:17.391Z,39.18
2022-07-28T02:18:45.721Z,39.32
2022-07-28T02:21:13.397Z,39.22
2022-07-28T02:23:43.123Z,39.77
2022-07-28T02:26:12.206Z,39.86
2022-07-28T02:28:43.576Z,40.00
2022-07-28T02:31:20.021Z,39.93
2022-07-28T02:34:00.338Z,40.13
2022-07-28T02:36:32.102Z,39.98
2022-07-28T02:39:07.180Z,40.03
2022-07-28T02:41:38.076Z,40.00
2022-07-28T02:44:12.092Z,40.11
2022-07-28T02:46:44.792Z,40.29
2022-07-28T02:49:20.297Z,40.17
2022-07-28T02:51:49.296Z,40.34
2022-07-28T02:54:17.966Z,40.10
2022-07-28T02:56:53.721Z,40.17
2022-07-28T02:59:21.598Z,40.24
2022-07-28T03:01:49.629Z,40.65
2022-07-28T03:04:17.728Z,41.14
2022-07-28T03:06:44.825Z,41.15
2022-07-28T03:09:11.421Z,40.98
2022-07-28T03:11:52.543Z,40.90
2022-07-28T03:14:19.083Z,41.15
2022-07-28T03:16:45.801Z,40.92
2022-07-28T03:19:12.468Z,40.90
2022-07-28T03:21:41.322Z,41.14
2022-07-28T03:24:10.482Z,41.07
2022-07-28T03:26:43.415Z,41.18
2022-07-28T03:29:11.124Z,41.48
2022-07-28T03:31:40.251Z,41.61
2022-07-28T03:34:07.241Z,41.14
2022-07-28T03:36:42.451Z,41.42
2022-07-28T03:39:11.811Z,41.21
2022-07-28T03:41:42.211Z,41.56
2022-07-28T03:44:10.968Z,41.48
2022-07-28T03:46:44.678Z,41.69
2022-07-28T03:49:11.563Z,41.42
2022-07-28T03:51:38.433Z,41.23
2022-07-28T03:54:05.031Z,41.41
2022-07-28T03:56:32.097Z,41.85
2022-07-28T03:58:58.660Z,41.97
2022-07-28T04:01:25.307Z,41.84
2022-07-28T04:03:51.889Z,41.62
2022-07-28T04:06:18.710Z,41.65
2022-07-28T04:08:45.307Z,42.19
2022-07-28T04:11:12.612Z,41.87
2022-07-28T04:13:39.316Z,41.95
2022-07-28T04:16:07.178Z,41.96
2022-07-28T04:18:34.177Z,41.88
2022-07-28T04:21:00.793Z,41.84
2022-07-28T04:23:28.115Z,42.02
2022-07-28T04:25:55.262Z,42.06
2022-07-28T04:28:22.131Z,42.27
2022-07-28T04:30:48.708Z,42.25
2022-07-28T04:33:15.403Z,42.49
2022-07-28T04:35:42.025Z,42.42
2022-07-28T04:38:08.635Z,42.42
2022-07-28T04:40:35.271Z,42.48
2022-07-28T04:43:03.601Z,42.17
2022-07-28T04:45:30.323Z,42.04
2022-07-28T04:47:56.909Z,42.06
2022-07-28T04:50:23.694Z,41.82
2022-07-28T04:52:58.679Z,41.56
2022-07-28T04:55:25.629Z,41.28
2022-07-28T04:57:52.414Z,41.27
2022-07-28T05:00:19.934Z,41.40
2022-07-28T05:02:49.044Z,41.34
2022-07-28T05:05:15.783Z,41.07
2022-07-28T05:07:42.392Z,41.17
2022-07-28T05:10:11.823Z,41.13
2022-07-28T05:12:38.961Z,41.07
2022-07-28T05:15:06.688Z,40.95
2022-07-28T05:17:33.276Z,40.66
2022-07-28T05:19:59.928Z,40.82
2022-07-28T05:22:26.884Z,40.80
2022-07-28T05:24:53.431Z,41.11
2022-07-28T05:27:20.473Z,40.99
2022-07-28T05:29:48.093Z,40.79
2022-07-28T05:32:16.472Z,40.76
2022-07-28T05:34:44.665Z,40.78
2022-07-28T05:37:11.284Z,40.74
2022-07-28T05:39:37.833Z,40.76
2022-07-28T05:42:04.846Z,40.42
2022-07-28T05:44:37.276Z,40.51
2022-07-28T05:47:04.859Z,40.61
2022-07-28T05:49:31.503Z,40.77
2022-07-28T05:51:58.053Z,41.13
2022-07-28T05:54:25.887Z,40.66
2022-07-28T05:56:52.791Z,40.38
2022-07-28T05:59:19.407Z,40.05
2022-07-28T06:01:46.548Z,40.08
2022-07-28T06:04:29.434Z,39.71
2022-07-28T06:06:56.313Z,40.05
2022-07-28T06:09:22.891Z,39.91
2022-07-28T06:11:52.452Z,39.87
2022-07-28T06:14:19.411Z,39.63
2022-07-28T06:16:50.888Z,39.82
2022-07-28T06:19:18.283Z,39.57
2022-07-28T06:21:44.915Z,39.55
2022-07-28T06:24:11.905Z,39.51
2022-07-28T06:26:44.380Z,38.83
2022-07-28T06:29:11.516Z,39.00
2022-07-28T06:31:38.989Z,38.70
2022-07-28T06:34:05.786Z,38.86
2022-07-28T06:36:32.363Z,38.20
2022-07-28T06:38:58.954Z,38.00
2022-07-28T06:41:25.483Z,37.57
2022-07-28T06:43:52.362Z,37.27
2022-07-28T06:46:19.624Z,37.28
2022-07-28T06:48:46.682Z,36.88
2022-07-28T06:51:15.009Z,37.47
2022-07-28T06:53:41.695Z,36.75
2022-07-28T06:56:10.881Z,36.48
2022-07-28T06:58:40.460Z,36.29
2022-07-28T07:01:07.734Z,36.50
2022-07-28T07:03:34.894Z,37.38
2022-07-28T07:06:01.487Z,36.56
2022-07-28T07:08:28.242Z,36.60
2022-07-28T07:10:55.140Z,36.74
2022-07-28T07:13:21.711Z,36.26
2022-07-28T07:15:48.268Z,36.03
2022-07-28T07:18:14.871Z,36.14
2022-07-28T07:20:41.434Z,36.01
2022-07-28T07:23:08.017Z,36.42
2022-07-28T07:25:34.655Z,35.79
2022-07-28T07:28:01.200Z,35.96
2022-07-28T07:30:27.749Z,35.92
2022-07-28T07:32:54.312Z,35.67
2022-07-28T07:35:20.993Z,35.07
2022-07-28T07:37:47.547Z,34.98
2022-07-28T07:40:14.248Z,33.17
2022-07-28T07:42:40.822Z,33.03
2022-07-28T07:45:07.787Z,32.59
2022-07-28T07:47:34.363Z,32.85
2022-07-28T07:50:04.157Z,33.41
2022-07-28T07:52:31.495Z,33.21
2022-07-28T07:54:58.223Z,33.09
2022-07-28T07:57:24.874Z,33.06
2022-07-28T07:59:51.392Z,32.48
2022-07-28T08:02:17.948Z,31.93
2022-07-28T08:04:44.513Z,31.42
2022-07-28T08:07:11.365Z,31.61
2022-07-28T08:09:38.626Z,32.44
2022-07-28T08:12:05.717Z,33.70
2022-07-28T08:14:32.310Z,34.55
2022-07-28T08:16:59.486Z,34.39
2022-07-28T08:19:26.653Z,33.22
2022-07-28T08:21:53.317Z,32.58
2022-07-28T08:24:31.592Z,32.38
2022-07-28T08:27:03.724Z,31.68
2022-07-28T08:29:30.421Z,30.21
2022-07-28T08:31:57.250Z,29.91
2022-07-28T08:34:31.083Z,31.15
2022-07-28T08:37:02.063Z,31.43
2022-07-28T08:39:29.263Z,31.64
2022-07-28T08:42:19.864Z,31.50
2022-07-28T08:45:05.918Z,31.15
2022-07-28T08:47:45.920Z,30.62
2022-07-28T08:50:24.276Z,31.19
2022-07-28T08:52:52.732Z,31.41
2022-07-28T08:55:32.059Z,32.30
2022-07-28T08:58:00.113Z,32.00
2022-07-28T09:00:27.087Z,32.39
2022-07-28T09:02:54.347Z,33.05
2022-07-28T09:05:22.542Z,33.23
2022-07-28T09:07:54.448Z,32.95
2022-07-28T09:10:21.941Z,32.36
2022-07-28T09:12:48.593Z,30.58
2022-07-28T09:15:15.196Z,28.96
2022-07-28T09:17:43.032Z,27.31
2022-07-28T09:20:11.713Z,26.00
2022-07-28T09:22:55.956Z,25.50
2022-07-28T09:25:22.979Z,24.69
2022-07-28T09:27:51.730Z,24.97
2022-07-28T09:30:31.285Z,24.54
2022-07-28T09:33:41.357Z,23.01
2022-07-28T09:36:14.574Z,23.28
2022-07-28T09:38:41.935Z,24.40
2022-07-28T09:41:08.588Z,25.41
2022-07-28T09:43:35.156Z,26.69
2022-07-28T09:46:18.966Z,26.30
2022-07-28T09:48:48.944Z,25.15
2022-07-28T09:51:28.633Z,24.28
2022-07-28T09:54:10.751Z,23.31
2022-07-28T09:56:46.648Z,23.09
2022-07-28T09:59:15.101Z,22.51
2022-07-28T10:01:56.653Z,21.15
2022-07-28T10:04:38.210Z,22.19
2022-07-28T10:07:07.619Z,21.89
2022-07-28T10:09:34.459Z,21.85
2022-07-28T10:12:23.286Z,21.55
2022-07-28T10:14:52.026Z,21.35
2022-07-28T10:17:29.671Z,21.42
2022-07-28T10:20:05.212Z,21.20
2022-07-28T10:22:34.144Z,20.56
2022-07-28T10:25:05.753Z,19.93
2022-07-28T10:27:32.771Z,18.39
2022-07-28T10:30:01.360Z,18.71
2022-07-28T10:32:31.297Z,19.30
2022-07-28T10:35:04.611Z,20.03
2022-07-28T10:37:32.597Z,20.46
2022-07-28T10:40:10.668Z,21.35
2022-07-28T10:42:39.055Z,21.20
2022-07-28T10:45:07.916Z,20.59
2022-07-28T10:47:35.999Z,20.20
2022-07-28T10:50:03.908Z,20.92
2022-07-28T10:52:46.647Z,22.14
2022-07-28T10:55:23.231Z,23.34
2022-07-28T10:58:36.463Z,24.47
2022-07-28T11:01:06.372Z,23.98
2022-07-28T11:03:38.326Z,23.56
2022-07-28T11:06:23.991Z,24.01
2022-07-28T11:08:56.622Z,24.89
2022-07-28T11:11:59.135Z,25.95
2022-07-28T11:14:39.113Z,26.37
2022-07-28T11:17:10.739Z,26.88
2022-07-28T11:19:55.596Z,25.91
2022-07-28T11:22:32.699Z,26.55
2022-07-28T11:25:00.784Z,26.52
2022-07-28T11:27:50.333Z,27.96
2022-07-28T11:30:26.182Z,27.97
2022-07-28T11:32:55.677Z,28.09
2022-07-28T11:35:24.320Z,27.71
2022-07-28T11:38:03.123Z,27.60
2022-07-28T11:40:30.586Z,28.31
2022-07-28T11:43:22.821Z,28.28
2022-07-28T11:46:10.124Z,28.46
2022-07-28T11:48:40.412Z,28.73
2022-07-28T11:51:07.070Z,28.41
2022-07-28T11:53:45.463Z,28.35
2022-07-28T11:56:23.360Z,27.58
2022-07-28T11:58:57.239Z,28.22
2022-07-28T12:01:23.767Z,28.76
2022-07-28T12:03:55.262Z,28.29
2022-07-28T12:06:35.433Z,28.66
2022-07-28T12:09:03.787Z,28.59
2022-07-28T12:11:40.924Z,27.93
2022-07-28T12:14:13.816Z,27.94
2022-07-28T12:16:42.705Z,27.35
2022-07-28T12:19:10.773Z,27.40
2022-07-28T12:21:46.103Z,27.05
2022-07-28T12:24:29.451Z,27.21
2022-07-28T12:26:57.609Z,26.78
2022-07-28T12:29:24.674Z,26.54
2022-07-28T12:31:59.739Z,26.37
2022-07-28T12:34:30.758Z,26.22
2022-07-28T12:37:02.473Z,26.98
2022-07-28T12:39:30.886Z,27.20
2022-07-28T12:42:08.812Z,27.28
2022-07-28T12:44:37.654Z,26.96
2022-07-28T12:47:06.348Z,26.74
2022-07-28T12:49:33.122Z,26.28
2022-07-28T12:52:17.076Z,26.73
2022-07-28T12:54:53.496Z,26.75
2022-07-28T12:57:50.596Z,26.41
2022-07-28T13:00:23.915Z,26.61
2022-07-28T13:02:53.664Z,25.68
2022-07-28T13:05:56.047Z,26.06
2022-07-28T13:08:24.515Z,26.68
2022-07-28T13:10:56.659Z,26.59
2022-07-28T13:13:24.345Z,26.67
2022-07-28T13:16:17.437Z,26.76
2022-07-28T13:18:47.757Z,26.90
2022-07-28T13:21:15.655Z,27.32
2022-07-28T13:23:43.106Z,28.05
2022-07-28T13:26:09.743Z,28.40
2022-07-28T13:28:36.421Z,28.29
2022-07-28T13:31:03.103Z,28.73
2022-07-28T13:33:29.919Z,29.51
2022-07-28T13:35:56.700Z,29.17
2022-07-28T13:38:23.425Z,29.52
2022-07-28T13:40:50.005Z,29.02
2022-07-28T13:43:16.608Z,29.17
2022-07-28T13:45:43.260Z,29.58
2022-07-28T13:48:09.917Z,29.45
2022-07-28T13:50:36.563Z,28.96
2022-07-28T13:53:03.262Z,29.73
2022-07-28T13:55:29.829Z,29.62
2022-07-28T13:57:56.812Z,29.72
2022-07-28T14:00:23.839Z,29.31
2022-07-28T14:02:51.498Z,29.24
2022-07-28T14:05:18.683Z,29.20
2022-07-28T14:07:48.386Z,29.34
2022-07-28T14:10:18.979Z,29.09
2022-07-28T14:12:46.221Z,29.70
2022-07-28T14:15:13.851Z,29.73
2022-07-28T14:17:43.364Z,29.67
2022-07-28T14:20:14.410Z,30.49
2022-07-28T14:22:42.545Z,30.97
2022-07-28T14:25:09.635Z,30.88
2022-07-28T14:27:36.343Z,30.85
2022-07-28T14:30:04.263Z,31.04
2022-07-28T14:32:31.890Z,30.65
2022-07-28T14:34:58.712Z,31.16
2022-07-28T14:37:26.120Z,31.00
2022-07-28T14:39:52.712Z,30.69
2022-07-28T14:42:19.308Z,30.88
2022-07-28T14:44:45.908Z,31.13
2022-07-28T14:47:12.628Z,31.41
2022-07-28T14:49:58.188Z,31.49
2022-07-28T14:52:27.069Z,32.15
2022-07-28T14:54:57.288Z,31.48
2022-07-28T14:57:24.484Z,31.71
2022-07-28T15:00:14.054Z,31.73
2022-07-28T15:02:41.227Z,32.20
2022-07-28T15:05:08.991Z,31.58
2022-07-28T15:07:36.364Z,31.91
2022-07-28T15:10:04.369Z,32.46
2022-07-28T15:12:31.167Z,32.08
2022-07-28T15:14:57.806Z,32.52
2022-07-28T15:17:24.333Z,32.25
2022-07-28T15:19:50.872Z,32.54
2022-07-28T15:22:17.516Z,32.52
2022-07-28T15:24:45.807Z,32.55
2022-07-28T15:27:12.513Z,32.12
2022-07-28T15:29:39.284Z,31.85
2022-07-28T15:32:06.203Z,32.31
2022-07-28T15:34:37.136Z,31.57
2022-07-28T15:37:03.708Z,31.08
2022-07-28T15:39:30.956Z,31.20
2022-07-28T15:41:58.345Z,31.13
2022-07-28T15:44:26.187Z,31.51
2022-07-28T15:46:53.172Z,31.87
2022-07-28T15:49:19.992Z,31.25
2022-07-28T15:51:46.708Z,31.52
2022-07-28T15:54:14.055Z,31.80
2022-07-28T15:56:41.947Z,32.12
2022-07-28T15:59:09.148Z,31.97
2022-07-28T16:01:36.062Z,31.72
2022-07-28T16:04:02.885Z,31.79
2022-07-28T16:06:48.493Z,31.41
2022-07-28T16:09:15.324Z,31.44
2022-07-28T16:11:42.041Z,31.72
2022-07-28T16:14:08.770Z,31.48
2022-07-28T16:16:35.775Z,31.50
2022-07-28T16:19:02.728Z,31.27
2022-07-28T16:21:29.467Z,30.96
2022-07-28T16:23:56.104Z,31.29
2022-07-28T16:26:22.737Z,31.30
2022-07-28T16:28:49.334Z,31.02
2022-07-28T16:31:16.790Z,30.68
2022-07-28T16:33:43.427Z,30.93
2022-07-28T16:36:10.013Z,31.12
2022-07-28T16:38:36.659Z,31.43
2022-07-28T16:41:03.556Z,31.06
2022-07-28T16:43:31.361Z,31.26
2022-07-28T16:45:58.017Z,31.16
2022-07-28T16:48:24.689Z,31.07
2022-07-28T16:50:51.267Z,31.36
2022-07-28T16:53:17.857Z,31.10
2022-07-28T16:55:46.937Z,31.60
2022-07-28T16:58:14.117Z,31.53
2022-07-28T17:00:40.857Z,31.45
2022-07-28T17:03:07.565Z,31.47
2022-07-28T17:05:37.736Z,31.82
2022-07-28T17:08:04.900Z,31.53
2022-07-28T17:10:31.721Z,32.03
2022-07-28T17:12:58.598Z,32.34
2022-07-28T17:15:25.260Z,32.10
2022-07-28T17:17:52.731Z,32.05
2022-07-28T17:20:20.883Z,32.15
2022-07-28T17:22:47.675Z,32.10
2022-07-28T17:28:01.528Z,32.19
2022-07-28T17:30:29.852Z,32.28
2022-07-28T17:32:58.826Z,32.27
2022-07-28T17:35:31.496Z,32.50
2022-07-28T17:38:01.435Z,32.47
2022-07-28T17:40:28.044Z,32.60
2022-07-28T17:42:54.628Z,32.51
2022-07-28T17:45:21.735Z,32.59
2022-07-28T17:47:48.289Z,32.80
2022-07-28T17:50:15.094Z,32.96
2022-07-28T17:52:42.962Z,32.66
2022-07-28T17:55:29.158Z,32.56
2022-07-28T17:57:57.726Z,32.46
2022-07-28T18:00:24.357Z,32.74
2022-07-28T18:02:51.106Z,32.57
2022-07-28T18:05:17.862Z,32.82
2022-07-28T18:07:51.185Z,32.84
2022-07-28T18:10:24.514Z,33.00
2022-07-28T18:12:51.992Z,32.81
2022-07-28T18:15:18.894Z,33.06
2022-07-28T18:17:54.458Z,33.06
2022-07-28T18:20:22.530Z,33.32
2022-07-28T18:22:49.350Z,33.45
2022-07-28T18:25:15.933Z,33.90
2022-07-28T18:27:42.690Z,34.28
2022-07-28T18:30:10.105Z,34.34
2022-07-28T18:32:36.625Z,34.48
2022-07-28T18:35:03.196Z,34.01
2022-07-28T18:37:30.884Z,34.18
2022-07-28T18:39:57.672Z,33.89
2022-07-28T18:42:24.455Z,34.01
2022-07-28T18:44:51.072Z,34.06
2022-07-28T18:47:17.643Z,34.34
2022-07-28T18:49:44.201Z,34.54
2022-07-28T18:52:10.746Z,34.31
2022-07-28T18:54:37.430Z,34.33
2022-07-28T18:57:04.209Z,34.26
2022-07-28T18:59:30.831Z,34.59
2022-07-28T19:01:57.476Z,34.36
2022-07-28T19:04:24.112Z,34.29
2022-07-28T19:06:51.232Z,34.99
2022-07-28T19:09:18.858Z,34.58
2022-07-28T19:11:46.429Z,34.94
2022-07-28T19:14:15.509Z,34.79
2022-07-28T19:16:42.895Z,35.19
2022-07-28T19:19:09.614Z,34.91
2022-07-28T19:21:36.235Z,35.14
2022-07-28T19:24:03.723Z,35.49
2022-07-28T19:26:30.300Z,35.40
2022-07-28T19:28:57.696Z,35.63
2022-07-28T19:31:25.448Z,35.41
2022-07-28T19:33:52.578Z,35.44
2022-07-28T19:36:19.962Z,35.42
2022-07-28T19:38:46.529Z,35.89
2022-07-28T19:41:13.458Z,35.26
2022-07-28T19:43:40.425Z,36.14
2022-07-28T19:46:07.299Z,36.04
2022-07-28T19:48:34.260Z,36.07
2022-07-28T19:51:01.004Z,35.95
2022-07-28T19:53:32.249Z,35.71
2022-07-28T19:56:01.274Z,35.69
2022-07-28T19:58:28.420Z,35.54
2022-07-28T20:00:55.791Z,36.19
2022-07-28T20:04:01.862Z,35.90
2022-07-28T20:06:10.143Z,35.82
2022-07-28T20:08:36.854Z,36.40
2022-07-28T20:11:03.614Z,36.68
2022-07-28T20:13:30.270Z,36.38
2022-07-28T20:15:56.814Z,36.70
2022-07-28T20:18:23.479Z,36.44
2022-07-28T20:20:50.277Z,36.58
2022-07-28T20:23:16.900Z,36.27
2022-07-28T20:25:45.214Z,36.33
2022-07-28T20:28:12.395Z,36.67
2022-07-28T20:30:39.576Z,36.74
2022-07-28T20:33:07.882Z,36.96
2022-07-28T20:35:34.494Z,36.55
2022-07-28T20:38:01.577Z,36.92
2022-07-28T20:40:28.176Z,36.93
2022-07-28T20:42:54.849Z,36.84
2022-07-28T20:45:21.598Z,36.41
2022-07-28T20:47:48.163Z,36.96
2022-07-28T20:50:15.664Z,36.52
2022-07-28T20:52:42.405Z,36.91
2022-07-28T20:55:11.251Z,37.49
2022-07-28T20:57:37.923Z,36.82
2022-07-28T21:00:06.412Z,36.81
2022-07-28T21:02:33.036Z,36.90
2022-07-28T21:04:59.642Z,37.44
2022-07-28T21:08:05.239Z,37.67
2022-07-28T21:10:13.674Z,37.11
2022-07-28T21:12:40.329Z,37.61
2022-07-28T21:15:08.105Z,37.22
2022-07-28T21:17:34.901Z,37.10
2022-07-28T21:20:01.780Z,36.94
2022-07-28T21:22:28.401Z,37.07
2022-07-28T21:24:55.814Z,36.89
2022-07-28T21:27:23.682Z,37.06
2022-07-28T21:32:17.274Z,37.89
2022-07-28T21:34:43.855Z,37.51
2022-07-28T21:37:11.615Z,37.21
2022-07-28T21:39:39.022Z,37.72
2022-07-28T21:42:08.448Z,37.85
2022-07-28T21:44:36.832Z,38.17
2022-07-28T21:47:03.837Z,37.73
2022-07-28T21:49:31.201Z,37.93
2022-07-28T21:51:57.828Z,37.90
2022-07-28T21:54:24.471Z,37.88
2022-07-28T21:56:51.115Z,37.78
2022-07-28T21:59:17.685Z,37.84
2022-07-28T22:01:44.463Z,37.77
2022-07-28T22:04:11.044Z,38.00
2022-07-28T22:06:37.650Z,37.66
2022-07-28T22:09:04.414Z,37.93
2022-07-28T22:11:31.019Z,38.48
2022-07-28T22:13:57.680Z,38.18
2022-07-28T22:16:24.265Z,38.39
2022-07-28T22:18:50.837Z,38.77
2022-07-28T22:21:17.431Z,38.63
2022-07-28T22:23:44.078Z,38.86
2022-07-28T22:26:10.662Z,39.00
2022-07-28T22:28:37.286Z,38.92
2022-07-28T22:31:08.786Z,38.87
2022-07-28T22:33:38.077Z,38.98
2022-07-28T22:36:08.874Z,39.30
2022-07-28T22:38:35.885Z,39.28
2022-07-28T22:41:02.651Z,39.37
2022-07-28T22:43:31.976Z,39.72
2022-07-28T22:45:58.637Z,39.38
2022-07-28T22:48:25.308Z,39.46
2022-07-28T22:50:52.011Z,39.30
2022-07-28T22:53:18.639Z,39.35
2022-07-28T22:55:45.182Z,39.73
2022-07-28T22:58:11.733Z,39.74
2022-07-28T23:00:38.342Z,39.88
2022-07-28T23:03:05.157Z,39.82
2022-07-28T23:05:32.216Z,40.12
2022-07-28T23:07:59.145Z,39.94
2022-07-28T23:10:26.329Z,39.83
2022-07-28T23:12:55.168Z,39.75
2022-07-28T23:15:25.182Z,39.96
2022-07-28T23:18:10.171Z,39.81
2022-07-28T23:20:38.343Z,39.94
2022-07-28T23:23:04.905Z,39.72
2022-07-28T23:25:31.631Z,40.38
2022-07-28T23:27:58.246Z,40.67
2022-07-28T23:30:24.840Z,40.79
2022-07-28T23:32:52.954Z,41.09
2022-07-28T23:35:19.511Z,41.19
2022-07-28T23:37:46.057Z,41.48
2022-07-28T23:40:13.219Z,41.38
2022-07-28T23:42:39.834Z,40.94
2022-07-28T23:45:06.866Z,40.90
2022-07-28T23:47:34.353Z,40.85
2022-07-28T23:50:02.158Z,41.01
2022-07-28T23:52:29.108Z,41.43
2022-07-28T23:54:55.876Z,41.49
2022-07-28T23:57:22.495Z,41.64
2022-07-28T23:59:49.028Z,41.36
